sensor_id;sensor_type;location;lat;lon;timestamp;P1;durP1;ratioP1;P2;durP2;ratioP2
36391;SDS011;22639;42.690;23.356;2023-03-01T00:01:19;6.53;;;4.57;;
36391;SDS011;22639;42.690;23.356;2023-03-01T00:03:45;6.37;;;4.40;;
36391;SDS011;22639;42.690;23.356;2023-03-01T00:06:10;7.87;;;5.00;;
36391;SDS011;22639;42.690;23.356;2023-03-01T00:08:36;7.23;;;4.10;;
36391;SDS011;22639;42.690;23.356;2023-03-01T00:11:02;7.80;;;4.47;;
36391;SDS011;22639;42.690;23.356;2023-03-01T00:13:28;4.17;;;3.13;;
36391;SDS011;22639;42.690;23.356;2023-03-01T00:15:53;5.13;;;3.73;;
36391;SDS011;22639;42.690;23.356;2023-03-01T00:18:18;9.13;;;7.20;;
36391;SDS011;22639;42.690;23.356;2023-03-01T00:20:50;12.10;;;10.77;;
36391;SDS011;22639;42.690;23.356;2023-03-01T00:23:16;8.67;;;7.73;;
36391;SDS011;22639;42.690;23.356;2023-03-01T00:25:42;9.00;;;7.03;;
36391;SDS011;22639;42.690;23.356;2023-03-01T00:28:07;8.17;;;6.00;;
36391;SDS011;22639;42.690;23.356;2023-03-01T00:30:32;9.27;;;6.73;;
36391;SDS011;22639;42.690;23.356;2023-03-01T00:32:58;6.57;;;5.23;;
36391;SDS011;22639;42.690;23.356;2023-03-01T00:35:23;7.10;;;3.80;;
36391;SDS011;22639;42.690;23.356;2023-03-01T00:37:48;6.27;;;2.57;;
36391;SDS011;22639;42.690;23.356;2023-03-01T00:40:18;5.60;;;3.43;;
36391;SDS011;22639;42.690;23.356;2023-03-01T00:42:43;4.93;;;3.43;;
36391;SDS011;22639;42.690;23.356;2023-03-01T00:45:09;3.60;;;2.60;;
36391;SDS011;22639;42.690;23.356;2023-03-01T00:47:34;3.50;;;3.17;;
36391;SDS011;22639;42.690;23.356;2023-03-01T00:49:59;3.43;;;2.40;;
36391;SDS011;22639;42.690;23.356;2023-03-01T00:52:24;4.23;;;3.53;;
36391;SDS011;22639;42.690;23.356;2023-03-01T00:54:51;4.97;;;3.63;;
36391;SDS011;22639;42.690;23.356;2023-03-01T00:57:17;5.50;;;3.57;;
36391;SDS011;22639;42.690;23.356;2023-03-01T00:59:42;4.27;;;3.87;;
36391;SDS011;22639;42.690;23.356;2023-03-01T01:02:07;5.57;;;3.50;;
36391;SDS011;22639;42.690;23.356;2023-03-01T01:04:32;4.07;;;3.43;;
36391;SDS011;22639;42.690;23.356;2023-03-01T01:06:57;4.53;;;3.53;;
36391;SDS011;22639;42.690;23.356;2023-03-01T01:09:23;4.07;;;3.57;;
36391;SDS011;22639;42.690;23.356;2023-03-01T01:11:49;4.00;;;2.93;;
36391;SDS011;22639;42.690;23.356;2023-03-01T01:14:15;2.80;;;2.17;;
36391;SDS011;22639;42.690;23.356;2023-03-01T01:16:40;5.03;;;3.23;;
36391;SDS011;22639;42.690;23.356;2023-03-01T01:19:06;4.33;;;2.93;;
36391;SDS011;22639;42.690;23.356;2023-03-01T01:21:31;3.77;;;3.37;;
36391;SDS011;22639;42.690;23.356;2023-03-01T01:23:56;4.27;;;3.40;;
36391;SDS011;22639;42.690;23.356;2023-03-01T01:26:23;5.47;;;3.70;;
36391;SDS011;22639;42.690;23.356;2023-03-01T01:28:49;5.33;;;2.93;;
36391;SDS011;22639;42.690;23.356;2023-03-01T01:31:14;3.37;;;2.33;;
36391;SDS011;22639;42.690;23.356;2023-03-01T01:33:40;2.37;;;2.03;;
36391;SDS011;22639;42.690;23.356;2023-03-01T01:36:06;3.03;;;2.40;;
36391;SDS011;22639;42.690;23.356;2023-03-01T01:38:31;3.37;;;2.83;;
36391;SDS011;22639;42.690;23.356;2023-03-01T01:40:57;4.00;;;3.23;;
36391;SDS011;22639;42.690;23.356;2023-03-01T01:43:24;2.67;;;2.40;;
36391;SDS011;22639;42.690;23.356;2023-03-01T01:45:50;1.63;;;1.53;;
36391;SDS011;22639;42.690;23.356;2023-03-01T01:48:24;2.30;;;2.10;;
36391;SDS011;22639;42.690;23.356;2023-03-01T01:50:55;2.93;;;2.60;;
36391;SDS011;22639;42.690;23.356;2023-03-01T01:53:22;3.00;;;2.57;;
36391;SDS011;22639;42.690;23.356;2023-03-01T01:55:51;3.80;;;2.60;;
36391;SDS011;22639;42.690;23.356;2023-03-01T01:58:19;3.00;;;2.70;;
36391;SDS011;22639;42.690;23.356;2023-03-01T02:00:45;2.83;;;2.53;;
36391;SDS011;22639;42.690;23.356;2023-03-01T02:03:13;2.47;;;2.27;;
36391;SDS011;22639;42.690;23.356;2023-03-01T02:08:23;3.37;;;2.50;;
36391;SDS011;22639;42.690;23.356;2023-03-01T02:10:50;2.67;;;2.17;;
36391;SDS011;22639;42.690;23.356;2023-03-01T02:13:16;2.90;;;2.17;;
36391;SDS011;22639;42.690;23.356;2023-03-01T02:15:42;2.93;;;2.43;;
36391;SDS011;22639;42.690;23.356;2023-03-01T02:18:09;2.70;;;2.50;;
36391;SDS011;22639;42.690;23.356;2023-03-01T02:21:21;2.80;;;2.60;;
36391;SDS011;22639;42.690;23.356;2023-03-01T02:23:23;2.60;;;2.40;;
36391;SDS011;22639;42.690;23.356;2023-03-01T02:28:22;2.07;;;1.90;;
36391;SDS011;22639;42.690;23.356;2023-03-01T02:30:49;3.07;;;2.70;;
36391;SDS011;22639;42.690;23.356;2023-03-01T02:33:33;2.90;;;2.60;;
36391;SDS011;22639;42.690;23.356;2023-03-01T02:36:01;4.47;;;2.63;;
36391;SDS011;22639;42.690;23.356;2023-03-01T02:38:27;2.10;;;1.90;;
36391;SDS011;22639;42.690;23.356;2023-03-01T02:40:52;3.73;;;2.90;;
36391;SDS011;22639;42.690;23.356;2023-03-01T02:43:19;3.07;;;2.23;;
36391;SDS011;22639;42.690;23.356;2023-03-01T02:45:49;2.53;;;2.23;;
36391;SDS011;22639;42.690;23.356;2023-03-01T02:48:15;1.87;;;1.60;;
36391;SDS011;22639;42.690;23.356;2023-03-01T02:53:13;3.30;;;2.40;;
36391;SDS011;22639;42.690;23.356;2023-03-01T02:55:40;2.53;;;2.33;;
36391;SDS011;22639;42.690;23.356;2023-03-01T02:58:06;3.13;;;2.80;;
36391;SDS011;22639;42.690;23.356;2023-03-01T03:00:33;2.93;;;2.33;;
36391;SDS011;22639;42.690;23.356;2023-03-01T03:02:59;3.57;;;3.07;;
36391;SDS011;22639;42.690;23.356;2023-03-01T03:05:29;2.87;;;2.20;;
36391;SDS011;22639;42.690;23.356;2023-03-01T03:07:54;2.70;;;2.23;;
36391;SDS011;22639;42.690;23.356;2023-03-01T03:10:22;2.23;;;2.03;;
36391;SDS011;22639;42.690;23.356;2023-03-01T03:12:58;2.93;;;2.30;;
36391;SDS011;22639;42.690;23.356;2023-03-01T03:15:23;3.30;;;3.00;;
36391;SDS011;22639;42.690;23.356;2023-03-01T03:17:49;2.73;;;2.43;;
36391;SDS011;22639;42.690;23.356;2023-03-01T03:20:15;3.27;;;2.90;;
36391;SDS011;22639;42.690;23.356;2023-03-01T03:22:44;3.57;;;2.70;;
36391;SDS011;22639;42.690;23.356;2023-03-01T03:25:09;3.87;;;3.07;;
36391;SDS011;22639;42.690;23.356;2023-03-01T03:27:36;3.83;;;2.87;;
36391;SDS011;22639;42.690;23.356;2023-03-01T03:30:01;3.53;;;2.97;;
36391;SDS011;22639;42.690;23.356;2023-03-01T03:32:26;3.87;;;3.30;;
36391;SDS011;22639;42.690;23.356;2023-03-01T03:34:51;3.70;;;2.97;;
36391;SDS011;22639;42.690;23.356;2023-03-01T03:37:17;3.00;;;2.47;;
36391;SDS011;22639;42.690;23.356;2023-03-01T03:40:00;2.30;;;2.10;;
36391;SDS011;22639;42.690;23.356;2023-03-01T03:42:25;4.67;;;3.03;;
36391;SDS011;22639;42.690;23.356;2023-03-01T03:44:51;3.67;;;2.97;;
36391;SDS011;22639;42.690;23.356;2023-03-01T03:47:16;4.80;;;3.70;;
36391;SDS011;22639;42.690;23.356;2023-03-01T03:49:41;4.23;;;3.03;;
36391;SDS011;22639;42.690;23.356;2023-03-01T03:52:06;5.63;;;4.30;;
36391;SDS011;22639;42.690;23.356;2023-03-01T03:54:38;4.77;;;3.77;;
36391;SDS011;22639;42.690;23.356;2023-03-01T03:57:03;6.63;;;3.90;;
36391;SDS011;22639;42.690;23.356;2023-03-01T03:59:29;5.83;;;5.20;;
36391;SDS011;22639;42.690;23.356;2023-03-01T04:01:54;8.10;;;5.57;;
36391;SDS011;22639;42.690;23.356;2023-03-01T04:04:19;6.27;;;4.80;;
36391;SDS011;22639;42.690;23.356;2023-03-01T04:06:44;4.67;;;3.60;;
36391;SDS011;22639;42.690;23.356;2023-03-01T04:09:09;4.73;;;3.60;;
36391;SDS011;22639;42.690;23.356;2023-03-01T04:11:35;3.33;;;3.03;;
36391;SDS011;22639;42.690;23.356;2023-03-01T04:14:00;5.17;;;3.63;;
36391;SDS011;22639;42.690;23.356;2023-03-01T04:16:25;5.47;;;3.33;;
36391;SDS011;22639;42.690;23.356;2023-03-01T04:18:50;5.43;;;3.10;;
36391;SDS011;22639;42.690;23.356;2023-03-01T04:21:17;3.57;;;3.00;;
36391;SDS011;22639;42.690;23.356;2023-03-01T04:23:42;4.30;;;3.50;;
36391;SDS011;22639;42.690;23.356;2023-03-01T04:26:08;4.67;;;3.17;;
36391;SDS011;22639;42.690;23.356;2023-03-01T04:28:34;6.70;;;4.23;;
36391;SDS011;22639;42.690;23.356;2023-03-01T04:31:05;6.87;;;4.27;;
36391;SDS011;22639;42.690;23.356;2023-03-01T04:33:38;7.97;;;4.57;;
36391;SDS011;22639;42.690;23.356;2023-03-01T04:36:03;6.73;;;3.90;;
36391;SDS011;22639;42.690;23.356;2023-03-01T04:38:30;3.73;;;1.70;;
36391;SDS011;22639;42.690;23.356;2023-03-01T04:40:55;3.67;;;3.07;;
36391;SDS011;22639;42.690;23.356;2023-03-01T04:43:21;4.37;;;3.53;;
36391;SDS011;22639;42.690;23.356;2023-03-01T04:45:46;5.97;;;4.43;;
36391;SDS011;22639;42.690;23.356;2023-03-01T04:48:11;6.50;;;4.50;;
36391;SDS011;22639;42.690;23.356;2023-03-01T04:50:36;6.70;;;4.77;;
36391;SDS011;22639;42.690;23.356;2023-03-01T04:53:02;5.13;;;4.40;;
36391;SDS011;22639;42.690;23.356;2023-03-01T04:55:27;4.50;;;3.47;;
36391;SDS011;22639;42.690;23.356;2023-03-01T04:57:53;5.87;;;4.13;;
36391;SDS011;22639;42.690;23.356;2023-03-01T05:00:19;5.63;;;4.40;;
36391;SDS011;22639;42.690;23.356;2023-03-01T05:02:48;6.90;;;5.40;;
36391;SDS011;22639;42.690;23.356;2023-03-01T05:05:14;5.07;;;4.20;;
36391;SDS011;22639;42.690;23.356;2023-03-01T05:07:39;4.83;;;4.30;;
36391;SDS011;22639;42.690;23.356;2023-03-01T05:10:05;5.63;;;4.37;;
36391;SDS011;22639;42.690;23.356;2023-03-01T05:12:30;7.57;;;4.60;;
36391;SDS011;22639;42.690;23.356;2023-03-01T05:14:55;5.73;;;4.53;;
36391;SDS011;22639;42.690;23.356;2023-03-01T05:17:20;6.13;;;4.40;;
36391;SDS011;22639;42.690;23.356;2023-03-01T05:19:46;5.20;;;4.13;;
36391;SDS011;22639;42.690;23.356;2023-03-01T05:22:11;6.83;;;5.50;;
36391;SDS011;22639;42.690;23.356;2023-03-01T05:24:36;4.17;;;3.00;;
36391;SDS011;22639;42.690;23.356;2023-03-01T05:27:03;5.30;;;3.80;;
36391;SDS011;22639;42.690;23.356;2023-03-01T05:29:30;6.40;;;4.57;;
36391;SDS011;22639;42.690;23.356;2023-03-01T05:31:56;7.93;;;4.93;;
36391;SDS011;22639;42.690;23.356;2023-03-01T05:34:26;6.63;;;5.30;;
36391;SDS011;22639;42.690;23.356;2023-03-01T05:36:52;6.90;;;4.77;;
36391;SDS011;22639;42.690;23.356;2023-03-01T05:39:20;6.67;;;5.10;;
36391;SDS011;22639;42.690;23.356;2023-03-01T05:41:47;6.80;;;5.10;;
36391;SDS011;22639;42.690;23.356;2023-03-01T05:44:12;6.00;;;5.27;;
36391;SDS011;22639;42.690;23.356;2023-03-01T05:46:38;4.23;;;3.47;;
36391;SDS011;22639;42.690;23.356;2023-03-01T05:49:03;6.63;;;4.90;;
36391;SDS011;22639;42.690;23.356;2023-03-01T05:51:29;5.40;;;4.17;;
36391;SDS011;22639;42.690;23.356;2023-03-01T05:53:54;6.57;;;4.63;;
36391;SDS011;22639;42.690;23.356;2023-03-01T05:56:20;6.23;;;4.63;;
36391;SDS011;22639;42.690;23.356;2023-03-01T05:58:47;5.20;;;3.90;;
36391;SDS011;22639;42.690;23.356;2023-03-01T06:01:12;5.30;;;4.50;;
36391;SDS011;22639;42.690;23.356;2023-03-01T06:03:38;5.93;;;4.70;;
36391;SDS011;22639;42.690;23.356;2023-03-01T06:06:04;4.90;;;4.00;;
36391;SDS011;22639;42.690;23.356;2023-03-01T06:08:29;4.77;;;3.23;;
36391;SDS011;22639;42.690;23.356;2023-03-01T06:10:54;5.93;;;4.13;;
36391;SDS011;22639;42.690;23.356;2023-03-01T06:13:20;4.47;;;4.03;;
36391;SDS011;22639;42.690;23.356;2023-03-01T06:15:45;8.27;;;4.47;;
36391;SDS011;22639;42.690;23.356;2023-03-01T06:18:11;4.63;;;3.37;;
36391;SDS011;22639;42.690;23.356;2023-03-01T06:20:36;4.13;;;3.13;;
36391;SDS011;22639;42.690;23.356;2023-03-01T06:23:01;5.43;;;3.87;;
36391;SDS011;22639;42.690;23.356;2023-03-01T06:25:27;5.80;;;4.07;;
36391;SDS011;22639;42.690;23.356;2023-03-01T06:27:52;5.10;;;3.37;;
36391;SDS011;22639;42.690;23.356;2023-03-01T06:30:18;4.23;;;3.23;;
36391;SDS011;22639;42.690;23.356;2023-03-01T06:32:44;4.00;;;3.40;;
36391;SDS011;22639;42.690;23.356;2023-03-01T06:35:10;3.40;;;3.10;;
36391;SDS011;22639;42.690;23.356;2023-03-01T06:37:35;9.03;;;2.73;;
36391;SDS011;22639;42.690;23.356;2023-03-01T06:40:02;4.07;;;2.80;;
36391;SDS011;22639;42.690;23.356;2023-03-01T06:42:33;3.67;;;3.30;;
36391;SDS011;22639;42.690;23.356;2023-03-01T06:44:58;3.00;;;2.57;;
36391;SDS011;22639;42.690;23.356;2023-03-01T06:47:23;3.13;;;2.50;;
36391;SDS011;22639;42.690;23.356;2023-03-01T06:49:48;3.80;;;3.17;;
36391;SDS011;22639;42.690;23.356;2023-03-01T06:52:14;3.37;;;3.07;;
36391;SDS011;22639;42.690;23.356;2023-03-01T06:54:39;3.90;;;2.63;;
36391;SDS011;22639;42.690;23.356;2023-03-01T06:57:04;3.03;;;2.73;;
36391;SDS011;22639;42.690;23.356;2023-03-01T06:59:29;4.13;;;2.77;;
36391;SDS011;22639;42.690;23.356;2023-03-01T07:01:55;3.77;;;3.00;;
36391;SDS011;22639;42.690;23.356;2023-03-01T07:04:20;4.30;;;3.90;;
36391;SDS011;22639;42.690;23.356;2023-03-01T07:06:45;5.60;;;3.70;;
36391;SDS011;22639;42.690;23.356;2023-03-01T07:09:11;4.43;;;3.60;;
36391;SDS011;22639;42.690;23.356;2023-03-01T07:11:36;6.63;;;4.03;;
36391;SDS011;22639;42.690;23.356;2023-03-01T07:14:03;3.77;;;3.03;;
36391;SDS011;22639;42.690;23.356;2023-03-01T07:16:29;5.83;;;3.03;;
36391;SDS011;22639;42.690;23.356;2023-03-01T07:18:55;4.20;;;2.97;;
36391;SDS011;22639;42.690;23.356;2023-03-01T07:21:21;5.83;;;3.50;;
36391;SDS011;22639;42.690;23.356;2023-03-01T07:23:47;4.37;;;3.57;;
36391;SDS011;22639;42.690;23.356;2023-03-01T07:26:13;4.90;;;3.67;;
36391;SDS011;22639;42.690;23.356;2023-03-01T07:28:38;2.93;;;2.33;;
36391;SDS011;22639;42.690;23.356;2023-03-01T07:31:05;3.20;;;2.90;;
36391;SDS011;22639;42.690;23.356;2023-03-01T07:33:31;5.43;;;3.60;;
36391;SDS011;22639;42.690;23.356;2023-03-01T07:36:00;3.23;;;2.60;;
36391;SDS011;22639;42.690;23.356;2023-03-01T07:38:26;5.40;;;3.90;;
36391;SDS011;22639;42.690;23.356;2023-03-01T07:40:51;6.50;;;4.13;;
36391;SDS011;22639;42.690;23.356;2023-03-01T07:43:19;4.87;;;3.40;;
36391;SDS011;22639;42.690;23.356;2023-03-01T07:45:46;4.60;;;2.97;;
36391;SDS011;22639;42.690;23.356;2023-03-01T07:48:11;2.67;;;2.37;;
36391;SDS011;22639;42.690;23.356;2023-03-01T07:50:37;4.70;;;2.33;;
36391;SDS011;22639;42.690;23.356;2023-03-01T07:53:02;4.10;;;2.73;;
36391;SDS011;22639;42.690;23.356;2023-03-01T07:55:27;3.77;;;3.07;;
36391;SDS011;22639;42.690;23.356;2023-03-01T07:57:52;3.07;;;2.53;;
36391;SDS011;22639;42.690;23.356;2023-03-01T08:00:18;2.57;;;2.07;;
36391;SDS011;22639;42.690;23.356;2023-03-01T08:02:43;3.47;;;2.83;;
36391;SDS011;22639;42.690;23.356;2023-03-01T08:05:09;4.30;;;2.70;;
36391;SDS011;22639;42.690;23.356;2023-03-01T08:07:35;4.03;;;3.07;;
36391;SDS011;22639;42.690;23.356;2023-03-01T08:10:00;4.03;;;2.60;;
36391;SDS011;22639;42.690;23.356;2023-03-01T08:12:25;2.83;;;2.17;;
36391;SDS011;22639;42.690;23.356;2023-03-01T08:14:53;4.63;;;3.20;;
36391;SDS011;22639;42.690;23.356;2023-03-01T08:17:37;3.20;;;2.53;;
36391;SDS011;22639;42.690;23.356;2023-03-01T08:20:04;2.40;;;2.00;;
36391;SDS011;22639;42.690;23.356;2023-03-01T08:22:31;4.37;;;2.57;;
36391;SDS011;22639;42.690;23.356;2023-03-01T08:24:57;2.60;;;2.30;;
36391;SDS011;22639;42.690;23.356;2023-03-01T08:27:22;4.70;;;3.37;;
36391;SDS011;22639;42.690;23.356;2023-03-01T08:29:47;3.80;;;3.30;;
36391;SDS011;22639;42.690;23.356;2023-03-01T08:32:12;4.00;;;3.30;;
36391;SDS011;22639;42.690;23.356;2023-03-01T08:34:38;3.57;;;2.30;;
36391;SDS011;22639;42.690;23.356;2023-03-01T08:37:05;1.93;;;1.77;;
36391;SDS011;22639;42.690;23.356;2023-03-01T08:39:31;5.60;;;2.63;;
36391;SDS011;22639;42.690;23.356;2023-03-01T08:41:56;5.27;;;3.20;;
36391;SDS011;22639;42.690;23.356;2023-03-01T08:44:22;3.47;;;3.17;;
36391;SDS011;22639;42.690;23.356;2023-03-01T08:46:47;3.20;;;2.47;;
36391;SDS011;22639;42.690;23.356;2023-03-01T08:49:15;3.30;;;3.00;;
36391;SDS011;22639;42.690;23.356;2023-03-01T08:51:41;3.30;;;2.60;;
36391;SDS011;22639;42.690;23.356;2023-03-01T08:54:09;3.13;;;2.83;;
36391;SDS011;22639;42.690;23.356;2023-03-01T08:56:36;2.70;;;2.50;;
36391;SDS011;22639;42.690;23.356;2023-03-01T08:59:01;3.00;;;2.80;;
36391;SDS011;22639;42.690;23.356;2023-03-01T09:01:26;4.57;;;2.90;;
36391;SDS011;22639;42.690;23.356;2023-03-01T09:03:52;3.77;;;2.90;;
36391;SDS011;22639;42.690;23.356;2023-03-01T09:06:17;2.60;;;2.30;;
36391;SDS011;22639;42.690;23.356;2023-03-01T09:08:46;2.40;;;1.43;;
36391;SDS011;22639;42.690;23.356;2023-03-01T09:11:13;2.67;;;2.47;;
36391;SDS011;22639;42.690;23.356;2023-03-01T09:13:40;1.27;;;1.17;;
36391;SDS011;22639;42.690;23.356;2023-03-01T09:16:06;2.30;;;1.87;;
36391;SDS011;22639;42.690;23.356;2023-03-01T09:18:32;2.63;;;2.10;;
36391;SDS011;22639;42.690;23.356;2023-03-01T09:21:01;2.20;;;1.80;;
36391;SDS011;22639;42.690;23.356;2023-03-01T09:23:26;3.43;;;2.27;;
36391;SDS011;22639;42.690;23.356;2023-03-01T09:25:52;3.67;;;2.70;;
36391;SDS011;22639;42.690;23.356;2023-03-01T09:28:17;2.23;;;1.90;;
36391;SDS011;22639;42.690;23.356;2023-03-01T09:30:43;3.27;;;1.97;;
36391;SDS011;22639;42.690;23.356;2023-03-01T09:33:09;2.73;;;1.90;;
36391;SDS011;22639;42.690;23.356;2023-03-01T09:35:41;1.80;;;1.50;;
36391;SDS011;22639;42.690;23.356;2023-03-01T09:38:11;4.20;;;2.47;;
36391;SDS011;22639;42.690;23.356;2023-03-01T09:40:41;2.87;;;2.50;;
36391;SDS011;22639;42.690;23.356;2023-03-01T09:43:08;4.67;;;2.77;;
36391;SDS011;22639;42.690;23.356;2023-03-01T09:45:39;2.53;;;2.30;;
36391;SDS011;22639;42.690;23.356;2023-03-01T09:48:06;2.30;;;2.00;;
36391;SDS011;22639;42.690;23.356;2023-03-01T09:50:38;2.67;;;1.70;;
36391;SDS011;22639;42.690;23.356;2023-03-01T09:55:37;2.63;;;2.43;;
36391;SDS011;22639;42.690;23.356;2023-03-01T10:00:48;1.53;;;1.27;;
36391;SDS011;22639;42.690;23.356;2023-03-01T10:03:25;0.80;;;0.80;;
36391;SDS011;22639;42.690;23.356;2023-03-01T10:08:40;2.53;;;1.90;;
36391;SDS011;22639;42.690;23.356;2023-03-01T10:11:28;2.00;;;1.53;;
36391;SDS011;22639;42.690;23.356;2023-03-01T10:17:11;2.80;;;1.47;;
36391;SDS011;22639;42.690;23.356;2023-03-01T10:19:32;2.33;;;1.73;;
36391;SDS011;22639;42.690;23.356;2023-03-01T10:24:36;2.97;;;1.87;;
36391;SDS011;22639;42.690;23.356;2023-03-01T10:27:04;2.83;;;1.87;;
36391;SDS011;22639;42.690;23.356;2023-03-01T10:29:49;2.60;;;1.70;;
36391;SDS011;22639;42.690;23.356;2023-03-01T10:32:15;1.90;;;1.70;;
36391;SDS011;22639;42.690;23.356;2023-03-01T10:34:42;4.37;;;2.03;;
36391;SDS011;22639;42.690;23.356;2023-03-01T10:39:35;2.10;;;1.90;;
36391;SDS011;22639;42.690;23.356;2023-03-01T10:42:02;2.97;;;2.17;;
36391;SDS011;22639;42.690;23.356;2023-03-01T10:44:38;1.00;;;0.83;;
36391;SDS011;22639;42.690;23.356;2023-03-01T10:47:04;1.40;;;1.30;;
36391;SDS011;22639;42.690;23.356;2023-03-01T10:49:29;0.77;;;0.77;;
36391;SDS011;22639;42.690;23.356;2023-03-01T10:51:54;0.87;;;0.60;;
36391;SDS011;22639;42.690;23.356;2023-03-01T10:56:52;1.13;;;0.70;;
36391;SDS011;22639;42.690;23.356;2023-03-01T10:59:36;0.87;;;0.70;;
36391;SDS011;22639;42.690;23.356;2023-03-01T11:04:27;1.50;;;1.30;;
36391;SDS011;22639;42.690;23.356;2023-03-01T11:06:57;1.27;;;1.17;;
36391;SDS011;22639;42.690;23.356;2023-03-01T11:09:24;2.10;;;1.10;;
36391;SDS011;22639;42.690;23.356;2023-03-01T11:11:53;1.63;;;1.07;;
36391;SDS011;22639;42.690;23.356;2023-03-01T11:14:22;1.10;;;1.00;;
36391;SDS011;22639;42.690;23.356;2023-03-01T11:16:48;1.60;;;1.50;;
36391;SDS011;22639;42.690;23.356;2023-03-01T11:19:20;1.37;;;1.10;;
36391;SDS011;22639;42.690;23.356;2023-03-01T11:24:13;2.37;;;1.57;;
36391;SDS011;22639;42.690;23.356;2023-03-01T11:26:40;4.20;;;1.20;;
36391;SDS011;22639;42.690;23.356;2023-03-01T11:29:10;1.83;;;1.00;;
36391;SDS011;22639;42.690;23.356;2023-03-01T11:31:37;1.57;;;1.03;;
36391;SDS011;22639;42.690;23.356;2023-03-01T11:36:59;1.43;;;1.07;;
36391;SDS011;22639;42.690;23.356;2023-03-01T11:39:34;1.10;;;1.00;;
36391;SDS011;22639;42.690;23.356;2023-03-01T11:44:33;1.83;;;1.07;;
36391;SDS011;22639;42.690;23.356;2023-03-01T11:47:15;1.73;;;1.30;;
36391;SDS011;22639;42.690;23.356;2023-03-01T11:57:43;2.87;;;2.20;;
36391;SDS011;22639;42.690;23.356;2023-03-01T12:05:14;3.50;;;2.10;;
36391;SDS011;22639;42.690;23.356;2023-03-01T12:10:15;3.90;;;3.30;;
36391;SDS011;22639;42.690;23.356;2023-03-01T12:22:53;4.30;;;2.63;;
36391;SDS011;22639;42.690;23.356;2023-03-01T12:38:39;3.40;;;2.40;;
36391;SDS011;22639;42.690;23.356;2023-03-01T12:46:10;2.53;;;2.30;;
36391;SDS011;22639;42.690;23.356;2023-03-01T12:51:10;2.27;;;1.77;;
36391;SDS011;22639;42.690;23.356;2023-03-01T12:53:41;4.90;;;2.40;;
36391;SDS011;22639;42.690;23.356;2023-03-01T12:56:17;3.60;;;3.00;;
36391;SDS011;22639;42.690;23.356;2023-03-01T12:58:52;4.87;;;2.73;;
36391;SDS011;22639;42.690;23.356;2023-03-01T13:04:06;4.23;;;2.57;;
36391;SDS011;22639;42.690;23.356;2023-03-01T13:09:14;3.50;;;2.70;;
36391;SDS011;22639;42.690;23.356;2023-03-01T13:11:43;4.20;;;3.10;;
36391;SDS011;22639;42.690;23.356;2023-03-01T13:16:50;3.90;;;2.90;;
36391;SDS011;22639;42.690;23.356;2023-03-01T13:19:19;3.37;;;2.67;;
36391;SDS011;22639;42.690;23.356;2023-03-01T13:21:45;4.47;;;2.77;;
36391;SDS011;22639;42.690;23.356;2023-03-01T13:27:49;4.90;;;3.60;;
36391;SDS011;22639;42.690;23.356;2023-03-01T13:29:48;4.47;;;3.13;;
36391;SDS011;22639;42.690;23.356;2023-03-01T13:34:46;4.37;;;3.60;;
36391;SDS011;22639;42.690;23.356;2023-03-01T13:37:22;3.20;;;2.80;;
36391;SDS011;22639;42.690;23.356;2023-03-01T13:39:48;3.20;;;2.43;;
36391;SDS011;22639;42.690;23.356;2023-03-01T13:42:35;3.10;;;2.60;;
36391;SDS011;22639;42.690;23.356;2023-03-01T13:45:05;3.87;;;3.10;;
36391;SDS011;22639;42.690;23.356;2023-03-01T13:47:38;3.87;;;2.73;;
36391;SDS011;22639;42.690;23.356;2023-03-01T13:50:04;4.97;;;2.67;;
36391;SDS011;22639;42.690;23.356;2023-03-01T13:57:38;4.93;;;3.00;;
36391;SDS011;22639;42.690;23.356;2023-03-01T14:00:07;4.17;;;2.70;;
36391;SDS011;22639;42.690;23.356;2023-03-01T14:02:32;3.60;;;2.37;;
36391;SDS011;22639;42.690;23.356;2023-03-01T14:04:59;3.10;;;2.40;;
36391;SDS011;22639;42.690;23.356;2023-03-01T14:07:25;3.70;;;3.20;;
36391;SDS011;22639;42.690;23.356;2023-03-01T14:09:55;4.63;;;3.10;;
36391;SDS011;22639;42.690;23.356;2023-03-01T14:12:25;5.03;;;3.37;;
36391;SDS011;22639;42.690;23.356;2023-03-01T14:19:45;5.70;;;3.00;;
36391;SDS011;22639;42.690;23.356;2023-03-01T14:24:56;6.13;;;3.67;;
36391;SDS011;22639;42.690;23.356;2023-03-01T14:27:22;3.60;;;2.93;;
36391;SDS011;22639;42.690;23.356;2023-03-01T14:30:22;4.37;;;3.27;;
36391;SDS011;22639;42.690;23.356;2023-03-01T14:32:40;3.83;;;2.80;;
36391;SDS011;22639;42.690;23.356;2023-03-01T14:35:28;9.10;;;2.80;;
36391;SDS011;22639;42.690;23.356;2023-03-01T14:37:53;3.70;;;2.60;;
36391;SDS011;22639;42.690;23.356;2023-03-01T14:40:23;6.37;;;2.70;;
36391;SDS011;22639;42.690;23.356;2023-03-01T14:42:49;4.00;;;3.10;;
36391;SDS011;22639;42.690;23.356;2023-03-01T14:45:14;5.63;;;3.10;;
36391;SDS011;22639;42.690;23.356;2023-03-01T14:47:40;3.63;;;2.70;;
36391;SDS011;22639;42.690;23.356;2023-03-01T14:50:09;3.60;;;2.83;;
36391;SDS011;22639;42.690;23.356;2023-03-01T14:52:36;7.53;;;2.57;;
36391;SDS011;22639;42.690;23.356;2023-03-01T14:55:02;4.93;;;2.83;;
36391;SDS011;22639;42.690;23.356;2023-03-01T14:57:28;3.40;;;2.50;;
36391;SDS011;22639;42.690;23.356;2023-03-01T14:59:55;4.80;;;3.43;;
36391;SDS011;22639;42.690;23.356;2023-03-01T15:02:21;5.50;;;3.63;;
36391;SDS011;22639;42.690;23.356;2023-03-01T15:04:48;8.17;;;3.97;;
36391;SDS011;22639;42.690;23.356;2023-03-01T15:07:14;3.50;;;2.33;;
36391;SDS011;22639;42.690;23.356;2023-03-01T15:09:40;4.63;;;2.77;;
36391;SDS011;22639;42.690;23.356;2023-03-01T15:17:48;5.30;;;3.60;;
36391;SDS011;22639;42.690;23.356;2023-03-01T15:20:16;4.23;;;3.13;;
36391;SDS011;22639;42.690;23.356;2023-03-01T15:22:45;7.20;;;3.33;;
36391;SDS011;22639;42.690;23.356;2023-03-01T15:25:14;3.93;;;3.40;;
36391;SDS011;22639;42.690;23.356;2023-03-01T15:27:42;3.97;;;2.93;;
36391;SDS011;22639;42.690;23.356;2023-03-01T15:30:17;4.93;;;3.90;;
36391;SDS011;22639;42.690;23.356;2023-03-01T15:32:43;6.73;;;4.00;;
36391;SDS011;22639;42.690;23.356;2023-03-01T15:37:55;3.90;;;2.40;;
36391;SDS011;22639;42.690;23.356;2023-03-01T15:40:22;5.07;;;3.50;;
36391;SDS011;22639;42.690;23.356;2023-03-01T15:42:49;6.70;;;4.47;;
36391;SDS011;22639;42.690;23.356;2023-03-01T15:47:58;7.87;;;6.10;;
36391;SDS011;22639;42.690;23.356;2023-03-01T15:50:31;9.60;;;6.47;;
36391;SDS011;22639;42.690;23.356;2023-03-01T15:53:01;10.43;;;6.57;;
36391;SDS011;22639;42.690;23.356;2023-03-01T15:55:29;9.20;;;6.73;;
36391;SDS011;22639;42.690;23.356;2023-03-01T15:57:59;11.90;;;6.57;;
36391;SDS011;22639;42.690;23.356;2023-03-01T16:00:26;9.10;;;5.63;;
36391;SDS011;22639;42.690;23.356;2023-03-01T16:02:51;7.37;;;4.17;;
36391;SDS011;22639;42.690;23.356;2023-03-01T16:05:20;8.13;;;5.07;;
36391;SDS011;22639;42.690;23.356;2023-03-01T16:07:46;9.17;;;5.37;;
36391;SDS011;22639;42.690;23.356;2023-03-01T16:10:12;6.70;;;5.13;;
36391;SDS011;22639;42.690;23.356;2023-03-01T16:12:38;6.40;;;3.67;;
36391;SDS011;22639;42.690;23.356;2023-03-01T16:15:04;5.73;;;4.47;;
36391;SDS011;22639;42.690;23.356;2023-03-01T16:17:29;11.43;;;4.20;;
36391;SDS011;22639;42.690;23.356;2023-03-01T16:19:54;8.30;;;5.00;;
36391;SDS011;22639;42.690;23.356;2023-03-01T16:22:22;8.57;;;5.00;;
36391;SDS011;22639;42.690;23.356;2023-03-01T16:24:49;5.73;;;4.20;;
36391;SDS011;22639;42.690;23.356;2023-03-01T16:27:15;10.63;;;4.73;;
36391;SDS011;22639;42.690;23.356;2023-03-01T16:29:41;8.73;;;4.90;;
36391;SDS011;22639;42.690;23.356;2023-03-01T16:32:06;6.20;;;4.30;;
36391;SDS011;22639;42.690;23.356;2023-03-01T16:34:31;5.03;;;3.30;;